createdAt,value
2022-12-20T00:01:58.456Z,-0.08
2022-12-20T00:04:28.117Z,0.00
2022-12-20T00:06:57.946Z,0.16
2022-12-20T00:09:27.776Z,0.05
2022-12-20T00:11:57.824Z,-0.22
2022-12-20T00:14:27.696Z,-0.02
2022-12-20T00:16:57.471Z,-0.17
2022-12-20T00:19:27.623Z,-0.12
2022-12-20T00:21:57.369Z,0.19
2022-12-20T00:24:27.173Z,-0.12
2022-12-20T00:26:56.992Z,-0.20
2022-12-20T00:29:26.799Z,-0.32
2022-12-20T00:31:56.648Z,-0.18
2022-12-20T00:34:26.546Z,-0.24
2022-12-20T00:36:58.015Z,-0.15
2022-12-20T00:39:28.129Z,-0.47
2022-12-20T00:41:59.371Z,-0.42
2022-12-20T00:44:29.184Z,-0.40
2022-12-20T00:46:59.128Z,-0.40
2022-12-20T00:49:28.991Z,-0.42
2022-12-20T00:51:59.176Z,-0.43
2022-12-20T00:54:29.020Z,-0.05
2022-12-20T00:56:59.244Z,-0.05
2022-12-20T00:59:29.088Z,-0.18
2022-12-20T01:01:59.073Z,-0.30
2022-12-20T01:04:28.907Z,-0.35
2022-12-20T01:06:58.785Z,-0.59
2022-12-20T01:09:28.555Z,-0.83
2022-12-20T01:11:58.441Z,-0.83
2022-12-20T01:14:28.279Z,-0.90
2022-12-20T01:16:58.261Z,-0.99
2022-12-20T01:19:28.427Z,-1.01
2022-12-20T01:21:58.241Z,-0.96
2022-12-20T01:24:28.167Z,-1.00
2022-12-20T01:26:57.905Z,-1.01
2022-12-20T01:29:27.748Z,-1.04
2022-12-20T01:31:57.611Z,-0.70
2022-12-20T01:34:27.683Z,-0.52
2022-12-20T01:36:57.544Z,-0.81
2022-12-20T01:39:27.418Z,-0.92
2022-12-20T01:41:57.356Z,-0.89
2022-12-20T01:44:30.194Z,-0.64
2022-12-20T01:46:59.980Z,-0.60
2022-12-20T01:49:39.425Z,-0.60
2022-12-20T01:52:12.026Z,-0.46
2022-12-20T01:54:57.039Z,-0.35
2022-12-20T01:57:35.870Z,-0.37
2022-12-20T02:00:09.316Z,-0.45
2022-12-20T02:02:42.596Z,-0.41
2022-12-20T02:05:14.240Z,-0.29
2022-12-20T02:07:48.792Z,-0.28
2022-12-20T02:10:21.850Z,-0.44
2022-12-20T02:12:54.756Z,-0.28
2022-12-20T02:15:39.242Z,-0.27
2022-12-20T02:18:24.041Z,-0.47
2022-12-20T02:21:05.466Z,-0.25
2022-12-20T02:24:03.560Z,-0.22
2022-12-20T02:26:45.244Z,-0.47
2022-12-20T02:29:29.876Z,-0.40
2022-12-20T02:32:05.359Z,-0.36
2022-12-20T02:34:38.699Z,-0.23
2022-12-20T02:37:08.467Z,-0.29
2022-12-20T02:39:40.812Z,-0.20
2022-12-20T02:42:13.159Z,-0.27
2022-12-20T02:45:07.207Z,-0.45
2022-12-20T02:47:40.072Z,-0.31
2022-12-20T02:50:11.350Z,-0.31
2022-12-20T02:52:42.731Z,-0.35
2022-12-20T02:55:13.132Z,-0.30
2022-12-20T02:57:56.212Z,-0.40
2022-12-20T03:00:24.886Z,-0.41
2022-12-20T03:03:13.729Z,-0.44
2022-12-20T03:05:49.058Z,-0.39
2022-12-20T03:08:21.137Z,-0.20
2022-12-20T03:10:52.003Z,-0.10
2022-12-20T03:13:23.405Z,-0.29
2022-12-20T03:16:00.659Z,-0.46
2022-12-20T03:18:30.668Z,-0.42
2022-12-20T03:21:00.437Z,-0.20
2022-12-20T03:23:30.346Z,-0.05
2022-12-20T03:26:00.185Z,-0.19
2022-12-20T03:28:32.016Z,-0.39
2022-12-20T03:31:02.076Z,-0.07
2022-12-20T03:33:33.639Z,0.00
2022-12-20T03:36:06.299Z,-0.37
2022-12-20T03:38:36.308Z,-0.37
2022-12-20T03:41:06.590Z,-0.55
2022-12-20T03:43:36.435Z,-0.61
2022-12-20T03:46:06.876Z,-0.45
2022-12-20T03:48:38.502Z,-0.32
2022-12-20T03:51:09.714Z,-0.35
2022-12-20T03:53:39.552Z,-0.61
2022-12-20T03:56:09.825Z,-0.74
2022-12-20T03:58:39.751Z,-0.74
2022-12-20T04:01:27.968Z,-0.86
2022-12-20T04:03:58.027Z,-0.60
2022-12-20T04:06:27.819Z,-0.70
2022-12-20T04:08:57.960Z,-0.73
2022-12-20T04:11:29.432Z,-0.75
2022-12-20T04:14:04.052Z,-0.75
2022-12-20T04:16:34.437Z,-0.71
2022-12-20T04:19:04.242Z,-0.77
2022-12-20T04:21:36.543Z,-0.32
2022-12-20T04:24:07.341Z,-0.40
2022-12-20T04:26:38.966Z,-0.56
2022-12-20T04:29:09.330Z,-0.73
2022-12-20T04:31:39.428Z,-0.36
2022-12-20T04:34:09.329Z,-0.39
2022-12-20T04:36:39.323Z,-0.24
2022-12-20T04:39:10.897Z,-0.15
2022-12-20T04:41:42.365Z,-0.28
2022-12-20T04:44:13.461Z,-0.01
2022-12-20T04:46:43.245Z,-0.01
2022-12-20T04:49:13.780Z,0.02
2022-12-20T04:51:44.524Z,-0.24
2022-12-20T04:54:14.739Z,-0.41
2022-12-20T04:56:48.946Z,-0.47
2022-12-20T04:59:19.409Z,-0.52
2022-12-20T05:01:50.702Z,-0.70
2022-12-20T05:04:21.163Z,-0.50
2022-12-20T05:06:51.226Z,-0.74
2022-12-20T05:09:21.264Z,-0.82
2022-12-20T05:11:51.180Z,-0.82
2022-12-20T05:14:20.925Z,-0.80
2022-12-20T05:16:50.843Z,-0.71
2022-12-20T05:19:20.641Z,-0.75
2022-12-20T05:22:08.299Z,-0.68
2022-12-20T05:24:56.896Z,-0.77
2022-12-20T05:27:31.548Z,-0.82
2022-12-20T05:30:01.541Z,-0.81
2022-12-20T05:32:31.777Z,-0.62
2022-12-20T05:35:01.586Z,-0.77
2022-12-20T05:37:31.719Z,-0.29
2022-12-20T05:40:04.584Z,-0.27
2022-12-20T05:42:35.020Z,-0.10
2022-12-20T05:45:07.132Z,-0.16
2022-12-20T05:47:39.006Z,-0.16
2022-12-20T05:50:18.274Z,-0.34
2022-12-20T05:52:44.336Z,-0.20
2022-12-20T05:55:15.745Z,0.41
2022-12-20T05:57:45.802Z,0.29
2022-12-20T06:00:16.324Z,0.50
2022-12-20T06:02:46.214Z,0.65
2022-12-20T06:05:16.091Z,0.64
2022-12-20T06:07:47.019Z,0.63
2022-12-20T06:10:16.996Z,0.58
2022-12-20T06:12:48.449Z,0.81
2022-12-20T06:15:18.367Z,0.93
2022-12-20T06:17:48.186Z,0.88
2022-12-20T06:20:17.743Z,1.12
2022-12-20T06:22:49.194Z,1.50
2022-12-20T06:25:18.989Z,1.50
2022-12-20T06:27:48.903Z,1.57
2022-12-20T06:30:19.898Z,1.68
2022-12-20T06:33:04.053Z,1.86
2022-12-20T06:35:34.033Z,1.82
2022-12-20T06:38:03.781Z,1.91
2022-12-20T06:40:35.412Z,1.89
2022-12-20T06:43:06.326Z,1.91
2022-12-20T06:45:41.485Z,2.01
2022-12-20T06:48:08.200Z,2.03
2022-12-20T06:50:39.547Z,2.10
2022-12-20T06:53:09.651Z,1.93
2022-12-20T06:55:40.771Z,1.81
2022-12-20T06:58:10.590Z,2.00
2022-12-20T07:00:40.563Z,1.82
2022-12-20T07:03:10.563Z,1.91
2022-12-20T07:05:40.858Z,2.07
2022-12-20T07:08:10.753Z,2.08
2022-12-20T07:10:40.536Z,2.17
2022-12-20T07:13:10.207Z,1.99
2022-12-20T07:15:40.012Z,2.24
2022-12-20T07:18:09.511Z,1.93
2022-12-20T07:20:40.577Z,2.28
2022-12-20T07:23:09.453Z,2.24
2022-12-20T07:25:38.851Z,2.20
2022-12-20T07:28:08.532Z,2.33
2022-12-20T07:33:21.785Z,2.16
2022-12-20T07:35:54.700Z,1.98
2022-12-20T07:38:22.904Z,2.17
2022-12-20T07:40:52.701Z,2.29
2022-12-20T07:43:22.880Z,2.35
2022-12-20T07:45:57.030Z,2.59
2022-12-20T07:48:26.914Z,2.68
2022-12-20T07:50:59.744Z,2.68
2022-12-20T07:53:32.113Z,2.82
2022-12-20T07:56:03.366Z,2.74
2022-12-20T07:58:34.305Z,2.69
2022-12-20T08:01:04.931Z,2.83
2022-12-20T08:03:40.636Z,2.85
2022-12-20T08:06:10.558Z,2.56
2022-12-20T08:08:43.306Z,2.46
2022-12-20T08:11:13.654Z,2.21
2022-12-20T08:13:46.611Z,2.21
2022-12-20T08:16:14.969Z,2.21
2022-12-20T08:18:44.762Z,2.46
2022-12-20T08:21:14.635Z,2.20
2022-12-20T08:23:44.896Z,1.96
2022-12-20T08:26:15.002Z,1.96
2022-12-20T08:28:44.896Z,1.89
2022-12-20T08:31:15.014Z,1.84
2022-12-20T08:33:44.750Z,1.56
2022-12-20T08:36:15.195Z,1.72
2022-12-20T08:38:44.822Z,2.19
2022-12-20T08:41:16.817Z,2.19
2022-12-20T08:43:46.724Z,2.06
2022-12-20T08:46:16.317Z,1.88
2022-12-20T08:48:46.155Z,1.85
2022-12-20T08:51:15.708Z,1.90
2022-12-20T08:53:45.818Z,1.92
2022-12-20T08:56:18.067Z,2.29
2022-12-20T08:58:48.468Z,2.11
2022-12-20T09:01:23.528Z,2.05
2022-12-20T09:03:53.502Z,2.31
2022-12-20T09:06:24.250Z,2.40
2022-12-20T09:08:55.614Z,2.55
2022-12-20T09:11:26.864Z,2.74
2022-12-20T09:13:59.555Z,2.76
2022-12-20T09:16:32.837Z,3.15
2022-12-20T09:19:06.160Z,3.31
2022-12-20T09:21:35.985Z,3.82
2022-12-20T09:24:06.464Z,3.70
2022-12-20T09:26:36.864Z,3.70
2022-12-20T09:29:06.755Z,3.89
2022-12-20T09:31:37.103Z,3.43
2022-12-20T09:34:07.018Z,3.00
2022-12-20T09:36:36.941Z,3.02
2022-12-20T09:39:06.538Z,3.02
2022-12-20T09:41:42.938Z,3.17
2022-12-20T09:44:15.605Z,2.98
2022-12-20T09:46:48.038Z,3.15
2022-12-20T09:49:20.219Z,3.11
2022-12-20T09:52:05.188Z,3.24
2022-12-20T09:54:49.796Z,3.16
2022-12-20T09:57:37.038Z,3.17
2022-12-20T10:00:14.876Z,3.19
2022-12-20T10:03:00.229Z,3.32
2022-12-20T10:05:28.055Z,3.24
2022-12-20T10:08:09.496Z,3.30
2022-12-20T10:10:45.670Z,3.32
2022-12-20T10:13:32.673Z,3.51
2022-12-20T10:16:22.113Z,3.49
2022-12-20T10:18:57.448Z,3.60
2022-12-20T10:21:39.026Z,3.52
2022-12-20T10:24:23.674Z,3.52
2022-12-20T10:26:54.161Z,3.77
2022-12-20T10:29:23.964Z,3.75
2022-12-20T10:31:56.109Z,3.95
2022-12-20T10:34:28.814Z,3.99
2022-12-20T10:37:12.767Z,4.08
2022-12-20T10:39:45.020Z,4.23
2022-12-20T10:42:26.663Z,4.37
2022-12-20T10:44:57.778Z,4.42
2022-12-20T10:47:36.888Z,4.50
2022-12-20T10:50:12.418Z,4.46
2022-12-20T10:52:43.353Z,4.59
2022-12-20T10:55:41.731Z,4.64
2022-12-20T10:58:17.623Z,4.64
2022-12-20T11:00:49.495Z,4.52
2022-12-20T11:03:23.371Z,4.55
2022-12-20T11:05:59.545Z,4.81
2022-12-20T11:08:41.273Z,4.80
2022-12-20T11:11:18.708Z,4.88
2022-12-20T11:13:49.637Z,5.15
2022-12-20T11:16:34.104Z,5.28
2022-12-20T11:19:32.893Z,5.62
2022-12-20T11:22:22.255Z,5.69
2022-12-20T11:25:22.931Z,5.76
2022-12-20T11:28:23.467Z,5.49
2022-12-20T11:31:15.681Z,5.40
2022-12-20T11:34:00.180Z,5.26
2022-12-20T11:36:59.876Z,5.29
2022-12-20T11:39:34.931Z,5.31
2022-12-20T11:42:10.417Z,5.17
2022-12-20T11:44:58.880Z,5.13
2022-12-20T11:47:23.746Z,4.86
2022-12-20T11:50:17.692Z,4.85
2022-12-20T11:53:01.940Z,4.86
2022-12-20T11:55:34.995Z,4.86
2022-12-20T11:58:23.285Z,4.77
2022-12-20T12:01:14.253Z,4.80
2022-12-20T12:04:05.028Z,4.66
2022-12-20T12:06:43.283Z,4.55
2022-12-20T12:09:27.825Z,4.68
2022-12-20T12:12:07.314Z,4.64
2022-12-20T12:15:16.128Z,4.48
2022-12-20T12:17:53.830Z,4.48
2022-12-20T12:20:26.709Z,4.52
2022-12-20T12:22:59.595Z,4.45
2022-12-20T12:25:29.529Z,4.31
2022-12-20T12:28:00.620Z,4.29
2022-12-20T12:30:32.605Z,4.32
2022-12-20T12:33:07.579Z,4.35
2022-12-20T12:35:48.780Z,4.20
2022-12-20T12:38:27.476Z,4.34
2022-12-20T12:41:09.004Z,4.57
2022-12-20T12:43:48.187Z,4.54
2022-12-20T12:46:20.817Z,4.57
2022-12-20T12:49:02.188Z,4.51
2022-12-20T12:51:35.043Z,4.46
2022-12-20T12:54:21.940Z,4.56
2022-12-20T12:56:55.650Z,4.37
2022-12-20T12:59:37.044Z,4.10
2022-12-20T13:02:20.306Z,3.68
2022-12-20T13:04:59.025Z,3.63
2022-12-20T13:07:36.433Z,3.56
2022-12-20T13:10:23.210Z,3.53
2022-12-20T13:12:58.826Z,3.56
2022-12-20T13:15:32.681Z,3.38
2022-12-20T13:18:04.667Z,3.23
2022-12-20T13:20:36.906Z,3.43
2022-12-20T13:23:12.740Z,3.48
2022-12-20T13:25:45.796Z,3.22
2022-12-20T13:28:24.704Z,3.36
2022-12-20T13:31:06.818Z,3.33
2022-12-20T13:33:51.550Z,3.10
2022-12-20T13:36:33.203Z,2.91
2022-12-20T13:39:05.778Z,2.90
2022-12-20T13:41:41.587Z,3.06
2022-12-20T13:44:19.865Z,2.92
2022-12-20T13:46:55.172Z,2.89
2022-12-20T13:49:39.309Z,2.98
2022-12-20T13:52:26.651Z,2.94
2022-12-20T13:55:02.404Z,2.65
2022-12-20T13:57:35.210Z,2.75
2022-12-20T14:00:07.993Z,2.60
2022-12-20T14:02:41.465Z,2.71
2022-12-20T14:05:23.416Z,2.65
2022-12-20T14:07:56.621Z,2.65
2022-12-20T14:10:28.785Z,2.25
2022-12-20T14:12:59.039Z,2.43
2022-12-20T14:15:36.520Z,2.52
2022-12-20T14:18:09.287Z,2.49
2022-12-20T14:20:39.474Z,2.10
2022-12-20T14:23:14.820Z,1.94
2022-12-20T14:25:59.260Z,1.88
2022-12-20T14:28:32.434Z,1.78
2022-12-20T14:31:03.593Z,1.91
2022-12-20T14:33:39.323Z,1.86
2022-12-20T14:36:12.094Z,1.75
2022-12-20T14:38:42.578Z,1.69
2022-12-20T14:41:31.766Z,1.64
2022-12-20T14:44:10.425Z,1.60
2022-12-20T14:46:46.935Z,1.64
2022-12-20T14:49:33.046Z,1.59
2022-12-20T14:52:20.641Z,1.58
2022-12-20T14:55:07.695Z,1.53
2022-12-20T14:57:29.182Z,1.64
2022-12-20T15:00:07.892Z,1.57
2022-12-20T15:03:01.939Z,1.37
2022-12-20T15:05:41.006Z,1.28
2022-12-20T15:08:32.791Z,1.38
2022-12-20T15:11:22.841Z,1.31
2022-12-20T15:13:55.530Z,1.25
2022-12-20T15:16:27.212Z,1.24
2022-12-20T15:19:05.169Z,1.13
2022-12-20T15:21:42.378Z,1.14
2022-12-20T15:24:15.572Z,1.09
2022-12-20T15:26:45.729Z,1.42
2022-12-20T15:29:20.776Z,1.54
2022-12-20T15:31:52.366Z,1.41
2022-12-20T15:34:36.788Z,1.40
2022-12-20T15:37:09.292Z,1.24
2022-12-20T15:39:40.344Z,1.17
2022-12-20T15:42:13.412Z,1.44
2022-12-20T15:44:43.587Z,1.37
2022-12-20T15:47:14.682Z,1.41
2022-12-20T15:49:49.696Z,1.25
2022-12-20T15:52:21.710Z,1.25
2022-12-20T15:54:51.948Z,1.51
2022-12-20T15:57:21.439Z,1.57
2022-12-20T16:00:01.031Z,1.44
2022-12-20T16:02:25.979Z,1.40
2022-12-20T16:04:56.341Z,1.49
2022-12-20T16:07:26.406Z,1.65
2022-12-20T16:09:56.217Z,1.37
2022-12-20T16:12:32.259Z,1.34
2022-12-20T16:15:02.108Z,1.44
2022-12-20T16:17:32.169Z,1.54
2022-12-20T16:20:01.776Z,1.45
2022-12-20T16:22:31.626Z,1.49
2022-12-20T16:25:01.687Z,1.47
2022-12-20T16:27:31.448Z,1.26
2022-12-20T16:30:01.351Z,1.05
2022-12-20T16:32:32.891Z,1.01
2022-12-20T16:35:02.465Z,1.06
2022-12-20T16:37:38.627Z,0.99
2022-12-20T16:40:04.092Z,1.32
2022-12-20T16:42:33.839Z,1.25
2022-12-20T16:45:03.723Z,1.43
2022-12-20T16:47:33.780Z,1.18
2022-12-20T16:50:03.717Z,1.01
2022-12-20T16:52:35.107Z,0.99
2022-12-20T16:55:06.638Z,0.99
2022-12-20T16:57:36.386Z,1.20
2022-12-20T17:00:08.170Z,1.05
2022-12-20T17:02:38.184Z,1.18
2022-12-20T17:05:08.542Z,1.02
2022-12-20T17:07:41.558Z,1.16
2022-12-20T17:10:10.092Z,1.09
2022-12-20T17:12:39.687Z,1.09
2022-12-20T17:15:12.269Z,1.13
2022-12-20T17:17:42.371Z,1.38
2022-12-20T17:20:12.797Z,1.11
2022-12-20T17:25:34.455Z,0.97
2022-12-20T17:28:04.343Z,0.97
2022-12-20T17:30:34.151Z,0.87
2022-12-20T17:33:04.047Z,0.94
2022-12-20T17:35:34.456Z,0.74
2022-12-20T17:38:06.168Z,1.02
2022-12-20T17:40:35.647Z,1.03
2022-12-20T17:43:07.913Z,1.17
2022-12-20T17:45:38.857Z,0.84
2022-12-20T17:48:08.727Z,0.84
2022-12-20T17:50:39.158Z,0.84
2022-12-20T17:53:10.032Z,0.83
2022-12-20T17:55:39.763Z,1.13
2022-12-20T17:58:11.267Z,0.96
2022-12-20T18:00:41.041Z,1.04
2022-12-20T18:03:30.290Z,0.87
2022-12-20T18:05:42.967Z,0.64
2022-12-20T18:08:12.810Z,0.77
2022-12-20T18:10:42.556Z,0.90
2022-12-20T18:13:12.244Z,0.81
2022-12-20T18:15:42.008Z,0.72
2022-12-20T18:18:11.529Z,0.83
2022-12-20T18:20:41.313Z,0.84
2022-12-20T18:23:10.800Z,1.04
2022-12-20T18:25:41.612Z,0.88
2022-12-20T18:28:11.607Z,0.88
2022-12-20T18:30:42.201Z,0.75
2022-12-20T18:33:12.452Z,0.85
2022-12-20T18:35:42.238Z,0.84
2022-12-20T18:38:11.694Z,0.77
2022-12-20T18:40:45.906Z,0.73
2022-12-20T18:43:15.362Z,0.93
2022-12-20T18:45:46.302Z,1.27
2022-12-20T18:48:16.070Z,1.03
2022-12-20T18:50:46.097Z,1.10
2022-12-20T18:53:15.672Z,0.94
2022-12-20T18:55:45.566Z,1.10
2022-12-20T18:58:15.370Z,0.93
2022-12-20T19:00:45.382Z,0.96
2022-12-20T19:03:15.070Z,1.00
2022-12-20T19:05:45.083Z,0.98
2022-12-20T19:08:14.611Z,0.92
2022-12-20T19:10:44.404Z,0.81
2022-12-20T19:13:13.866Z,1.41
2022-12-20T19:15:43.648Z,1.27
2022-12-20T19:18:13.279Z,0.94
2022-12-20T19:20:43.639Z,1.16
2022-12-20T19:23:13.255Z,1.08
2022-12-20T19:25:43.326Z,0.94
2022-12-20T19:28:13.568Z,0.95
2022-12-20T19:30:43.390Z,1.22
2022-12-20T19:33:13.850Z,1.01
2022-12-20T19:35:55.392Z,0.81
2022-12-20T19:38:15.527Z,1.00
2022-12-20T19:40:48.372Z,0.91
2022-12-20T19:43:20.120Z,0.93
2022-12-20T19:45:50.379Z,0.90
2022-12-20T19:48:21.147Z,1.43
2022-12-20T19:50:51.016Z,1.06
2022-12-20T19:53:20.763Z,1.19
2022-12-20T19:55:53.999Z,1.02
2022-12-20T19:58:23.809Z,1.01
2022-12-20T20:00:54.046Z,1.02
2022-12-20T20:03:24.206Z,0.87
2022-12-20T20:05:55.542Z,1.02
2022-12-20T20:08:25.381Z,1.01
2022-12-20T20:10:56.011Z,0.90
2022-12-20T20:13:26.607Z,0.77
2022-12-20T20:15:58.896Z,0.96
2022-12-20T20:18:29.629Z,0.96
2022-12-20T20:20:59.317Z,0.90
2022-12-20T20:23:29.076Z,0.83
2022-12-20T20:25:58.855Z,1.26
2022-12-20T20:28:32.519Z,1.42
2022-12-20T20:31:00.344Z,1.13
2022-12-20T20:33:30.887Z,1.04
2022-12-20T20:36:02.294Z,1.01
2022-12-20T20:38:34.233Z,1.13
2022-12-20T20:41:04.371Z,1.38
2022-12-20T20:43:35.817Z,1.37
2022-12-20T20:46:07.763Z,1.14
2022-12-20T20:48:38.126Z,0.94
2022-12-20T20:51:08.054Z,0.86
2022-12-20T20:53:38.293Z,0.92
2022-12-20T20:56:09.389Z,0.78
2022-12-20T20:58:39.477Z,0.89
2022-12-20T21:01:10.125Z,0.85
2022-12-20T21:03:40.564Z,0.54
2022-12-20T21:08:42.409Z,0.68
2022-12-20T21:11:12.647Z,0.71
2022-12-20T21:13:42.979Z,0.66
2022-12-20T21:16:17.121Z,0.95
2022-12-20T21:18:53.591Z,0.82
2022-12-20T21:21:24.378Z,0.64
2022-12-20T21:23:55.684Z,0.69
2022-12-20T21:26:26.139Z,0.59
2022-12-20T21:29:02.006Z,0.68
2022-12-20T21:31:31.886Z,1.20
2022-12-20T21:34:02.090Z,1.05
2022-12-20T21:36:31.846Z,0.95
2022-12-20T21:39:01.742Z,0.76
2022-12-20T21:41:31.842Z,0.83
2022-12-20T21:44:02.177Z,0.77
2022-12-20T21:46:33.439Z,0.78
2022-12-20T21:49:03.312Z,0.59
2022-12-20T21:51:35.229Z,0.51
2022-12-20T21:54:06.188Z,0.68
2022-12-20T21:56:36.385Z,0.45
2022-12-20T21:59:06.401Z,0.97
2022-12-20T22:01:36.314Z,0.64
2022-12-20T22:04:07.859Z,0.64
2022-12-20T22:06:37.643Z,0.96
2022-12-20T22:09:08.854Z,0.96
2022-12-20T22:11:39.628Z,0.85
2022-12-20T22:14:11.242Z,1.02
2022-12-20T22:16:41.272Z,1.07
2022-12-20T22:19:14.809Z,1.15
2022-12-20T22:21:44.572Z,0.84
2022-12-20T22:24:14.347Z,0.99
2022-12-20T22:26:44.605Z,0.93
2022-12-20T22:29:14.422Z,1.02
2022-12-20T22:31:44.291Z,0.69
2022-12-20T22:34:14.170Z,0.66
2022-12-20T22:36:43.960Z,0.97
2022-12-20T22:39:14.376Z,0.73
2022-12-20T22:41:44.676Z,0.85
2022-12-20T22:44:14.459Z,0.65
2022-12-20T22:46:44.569Z,0.86
2022-12-20T22:49:19.052Z,0.65
2022-12-20T22:52:00.854Z,0.69
2022-12-20T22:54:20.428Z,0.61
2022-12-20T22:56:50.291Z,0.61
2022-12-20T22:59:20.208Z,0.72
2022-12-20T23:01:51.612Z,0.49
2022-12-20T23:04:21.537Z,0.59
2022-12-20T23:06:52.269Z,0.38
2022-12-20T23:09:23.643Z,0.41
2022-12-20T23:12:11.988Z,0.69
2022-12-20T23:15:03.832Z,0.69
2022-12-20T23:17:32.885Z,0.40
2022-12-20T23:20:20.577Z,0.18
2022-12-20T23:22:50.928Z,0.18
2022-12-20T23:25:22.175Z,0.21
2022-12-20T23:27:52.062Z,0.06
2022-12-20T23:30:24.602Z,-0.16
2022-12-20T23:32:56.269Z,-0.27
2022-12-20T23:35:27.000Z,-0.37
2022-12-20T23:37:56.829Z,-0.37
2022-12-20T23:40:26.783Z,-0.32
2022-12-20T23:42:56.644Z,-0.24
2022-12-20T23:45:26.780Z,-0.35
2022-12-20T23:47:56.881Z,-0.20
2022-12-20T23:50:27.377Z,-0.35
2022-12-20T23:52:57.192Z,-0.60
2022-12-20T23:55:27.681Z,-0.75
2022-12-20T23:57:57.804Z,-0.78
